Latest Coastal Weather Observations for Wadeye (Port Keats)

IDD60701

Issued at 5:41 am CST Thursday 5 March 2015 (issued every 10 minutes, with the page automatically refreshed every 10 minutes)

About coastal observations | Map of coastal stations | Coastal observations for NT | Marine services | Other Formats
Station Details ID: 014948 Name: PORT KEATS AIRPORT Lat: -14.25 Lon: 129.53 Height: 28.0 m
Data from the previous 72 hours. | See also: Recent months at Wadeye (Port Keats)
Date/Time
CST
Temp

°C
Wind Pressure Rain
since 9am
mm
Weather Cloud Vis
km
Sea
Height
m
Swell
Dir
 
Speed
knots
Gust
knots
hPa Trend Height
m
Period
s
Dir
05/05:30am 23.9 CALM 0 0 1007.7 - 10.4 - - - - - - -
05/05:00am 23.8 E 2 4 1007.3 - 10.4 - - - - - - -
05/04:30am 23.6 SSW 4 7 1006.9 - 10.4 - - - - - - -
05/04:00am 23.6 S 3 5 1006.9 - 10.4 - - - - - - -
05/03:30am 23.7 SW 3 5 1007.5 - 10.4 - - - - - - -
05/03:00am 23.9 E 6 10 1008.4 - 10.4 - - - - - - -
05/02:30am 23.9 ESE 5 9 1008.2 - 10.4 - - - - - - -
05/02:00am 23.7 CALM 0 4 1007.7 - 10.4 - - - - - - -
05/01:30am 23.9 CALM 0 0 1007.9 - 10.0 - - - - - - -
05/01:00am 23.6 SE 3 5 1007.9 - 10.0 - - - - - - -
05/12:30am 23.4 SW 5 11 1008.8 - 10.0 - - - - - - -
05/12:00am 23.0 E 15 23 1010.4 - 6.6 Rain - - - - - -
 
Date/Time
CST
Temp

°C
Wind Pressure Rain
since 9am
mm
Weather Cloud Vis
km
Sea
Height
m
Swell
Dir
 
Speed
knots
Gust
knots
hPa Trend Height
m
Period
s
Dir
04/11:45pm 26.6 ESE 10 25 1009.9 - 3.2 - - - - - - -
04/11:30pm 26.8 CALM 0 0 1008.6 - 3.2 - - - - - - -
04/11:00pm 26.9 CALM 0 0 1009.0 - 3.2 - - - - - - -
04/10:30pm 26.9 CALM 0 0 1008.7 - 3.2 - - - - - - -
04/10:00pm 27.0 SSW 3 4 1008.8 - 3.2 - - - - - - -
04/09:30pm 27.9 WNW 2 4 1008.7 - 3.2 - - - - - - -
04/09:00pm 28.1 NW 4 5 1008.2 - 3.2 - - - - - - -
04/08:30pm 28.2 WNW 3 5 1008.2 - 3.2 - - - - - - -
04/08:00pm 28.6 NW 3 6 1007.8 - 3.2 - - - - - - -
04/07:30pm 28.9 NNW 5 7 1007.2 - 3.2 - - - - - - -
04/07:00pm 29.4 NW 6 8 1006.4 - 3.2 - - - - - - -
04/06:30pm 30.2 NW 6 9 1006.1 - 3.2 - - - - - - -
04/06:00pm 30.6 WNW 5 7 1006.1 - 3.2 Recent precip. - - - - - -
04/05:30pm 31.6 NW 7 11 1005.8 - 3.0 - - - - - - -
04/05:00pm 31.5 NW 7 9 1005.8 - 3.0 - - - - - - -
04/04:30pm 30.1 WNW 4 6 1005.5 - 3.0 - - - - - - -
04/04:00pm 30.3 NNW 10 14 1005.5 - 0.2 - - - - - - -
04/03:30pm 31.9 NNW 8 11 1005.7 - 0.0 - - - - - - -
04/03:00pm 32.6 N 7 11 1005.8 - 0.0 - - - - - - -
04/02:30pm 32.5 N 8 11 1006.2 - 0.0 - - - - - - -
04/02:00pm 32.6 N 8 12 1006.5 - 0.0 - - - - - - -
04/01:30pm 32.3 ENE 7 12 1007.1 - 0.0 - - - - - - -
04/01:00pm 33.0 ENE 7 11 1007.4 - 0.0 - - - - - - -
04/12:30pm 32.5 NNE 9 11 1007.9 - 0.0 - - - - - - -
04/12:00pm 31.8 ENE 8 12 1008.2 - 0.0 - - - - - - -
04/11:30am 31.7 ENE 9 13 1008.1 - 0.0 - - - - - - -
04/11:00am 30.5 NE 8 11 1008.2 - 0.0 - - - - - - -
04/10:30am 30.4 NNE 8 13 1008.6 - 0.0 - - - - - - -
04/10:00am 29.6 NE 7 10 1008.6 - 0.0 - - - - - - -
04/09:30am 29.4 ENE 8 10 1008.4 - 0.0 - - - - - - -
04/09:00am 28.0 NE 7 9 1007.8 - 0.0 - - - - - - -
04/08:30am 27.4 ENE 8 12 1007.6 - 0.0 - - - - - - -
04/08:00am 26.5 E 6 8 1007.6 - 0.0 - - - - - - -
04/07:30am 25.9 E 5 7 1007.3 - 0.0 - - - - - - -
04/07:00am 25.4 ESE 5 6 1007.0 - 0.0 - - - - - - -
04/06:30am 25.5 NE 5 7 1006.5 - 0.0 - - - - - - -
04/06:00am 25.5 ENE 5 7 1006.0 - 0.0 - - - - - - -
04/05:30am 25.6 E 5 7 1005.8 - 0.0 - - - - - - -
04/05:00am 25.6 E 5 7 1005.5 - 0.0 - - - - - - -
04/04:30am 25.6 E 4 5 1005.5 - 0.0 - - - - - - -
04/04:00am 25.7 E 4 5 1005.5 - 0.0 - - - - - - -
04/03:30am 25.8 ENE 4 5 1005.7 - 0.0 - - - - - - -
04/03:00am 25.9 ENE 5 7 1005.4 - 0.0 - - - - - - -
04/02:30am 25.8 E 5 7 1005.5 - 0.0 - - - - - - -
04/02:00am 26.0 ENE 5 7 1005.8 - 0.0 - - - - - - -
04/01:30am 26.1 E 5 7 1006.1 - 0.0 - - - - - - -
04/01:00am 26.3 E 4 5 1006.5 - 0.0 - - - - - - -
04/12:30am 26.4 E 4 6 1006.7 - 0.0 - - - - - - -
04/12:00am 26.4 E 5 7 1006.7 - 0.0 - - - - - - -
 
Date/Time
CST
Temp

°C
Wind Pressure Rain
since 9am
mm
Weather Cloud Vis
km
Sea
Height
m
Swell
Dir
 
Speed
knots
Gust
knots
hPa Trend Height
m
Period
s
Dir
03/11:30pm 26.5 ENE 4 6 1006.9 - 0.0 - - - - - - -
03/11:00pm 26.6 E 4 6 1006.8 - 0.0 - - - - - - -
03/10:30pm 26.5 E 3 4 1006.5 - 0.0 - - - - - - -
03/10:00pm 26.6 E 3 4 1006.2 - 0.0 - - - - - - -
03/09:30pm 27.0 NE 3 4 1005.8 - 0.0 - - - - - - -
03/09:00pm 27.1 ESE 4 6 1005.4 - 0.0 - - - - - - -
03/08:30pm 27.0 E 5 6 1004.9 - 0.0 - - - - - - -
03/08:00pm 27.2 ENE 5 6 1004.6 - 0.0 - - - - - - -
03/07:30pm 27.7 ENE 4 5 1004.7 - 0.0 - - - - - - -
03/07:00pm 28.2 ENE 5 7 1004.7 - 0.0 - - - - - - -
03/06:30pm 28.6 NNE 4 6 1004.6 - 0.0 - - - - - - -
03/06:00pm 28.7 E 5 7 1004.4 - 0.0 - - - - - - -
03/05:30pm 28.8 CALM 0 2 1003.8 - 0.0 - - - - - - -
03/05:00pm 28.9 NE 4 5 1003.7 - 0.0 - - - - - - -
03/04:30pm 29.2 NNE 7 11 1003.9 - 0.0 - - - - - - -
03/04:00pm 28.6 NNE 9 12 1003.9 - 0.0 - - - - - - -
03/03:30pm 32.1 ENE 8 11 1003.7 - 0.0 - - - - - - -
03/03:00pm 32.1 ENE 10 15 1004.1 - 0.0 - - - - - - -
03/02:30pm 32.9 ENE 9 14 1004.1 - 0.0 - - - - - - -
03/02:00pm 32.9 ENE 9 14 1004.6 - 0.0 - - - - - - -
03/01:30pm 32.2 ENE 10 16 1005.1 - 0.0 - - - - - - -
03/01:00pm 32.4 ENE 9 14 1005.4 - 0.0 - - - - - - -
03/12:30pm 31.3 E 8 10 1005.8 - 0.0 - - - - - - -
03/12:00pm 31.5 E 7 11 1005.9 - 0.0 - - - - - - -
03/11:30am 30.7 E 9 13 1006.1 - 0.0 - - - - - - -
03/11:00am 31.0 ENE 8 11 1006.3 - 0.0 - - - - - - -
03/10:30am 30.2 E 7 10 1006.4 - 0.0 - - - - - - -
03/10:00am 29.1 SE 6 9 1006.6 - 0.0 - - - - - - -
03/09:30am 27.9 SSE 4 5 1006.6 - 0.0 - - - - - - -
03/09:00am 26.4 CALM 0 3 1006.5 - 4.2 - - - - - - -
03/08:30am 25.2 S 1 4 1006.2 - 4.2 - - - - - - -
03/08:00am 24.9 CALM 0 0 1005.8 - 4.2 - - - - - - -
03/07:30am 24.8 SE 3 4 1005.4 - 4.2 - - - - - - -
03/07:00am 24.5 SSE 4 5 1005.2 - 4.2 - - - - - - -
03/06:30am 24.4 SSE 3 5 1004.9 - 4.2 - - - - - - -
03/06:00am 24.4 SE 1 4 1004.4 - 4.2 - - - - - - -
03/05:30am 24.3 E 3 4 1004.2 - 4.2 - - - - - - -
03/05:00am 24.2 CALM 0 0 1003.6 - 4.2 - - - - - - -
03/04:30am 24.0 CALM 0 0 1003.5 - 4.2 - - - - - - -
03/04:00am 24.0 SSW 3 5 1003.4 - 4.2 - - - - - - -
03/03:30am 23.9 WSW 3 6 1003.7 - 4.2 - - - - - - -
03/03:00am 24.0 SSE 3 7 1004.7 - 4.2 - - - - - - -
03/02:30am 24.1 SW 3 6 1004.5 - 4.2 - - - - - - -
03/02:00am 24.4 N 4 6 1005.1 - 4.2 - - - - - - -
03/01:30am 24.8 E 6 9 1005.8 - 4.2 - - - - - - -
03/01:00am 24.8 NNW 4 5 1004.9 - 4.2 - - - - - - -
03/12:30am 25.0 NE 2 4 1005.4 - 4.2 - - - - - - -
03/12:00am 24.9 SE 4 6 1006.1 - 4.2 Recent precip. - - - - - -
 
Date/Time
CST
Temp

°C
Wind Pressure Rain
since 9am
mm
Weather Cloud Vis
km
Sea
Height
m
Swell
Dir
 
Speed
knots
Gust
knots
hPa Trend Height
m
Period
s
Dir
02/11:30pm 25.3 SE 4 7 1007.1 - 4.2 - - - - - - -
02/11:00pm 25.4 NNE 4 5 1006.3 - 3.4 - - - - - - -
02/10:30pm 25.4 ESE 5 8 1006.4 - 2.6 - - - - - - -
02/10:00pm 26.0 ENE 6 8 1005.7 - 0.4 - - - - - - -
02/09:30pm 26.5 ESE 4 5 1005.0 - 0.4 - - - - - - -
02/09:00pm 26.6 CALM 0 0 1004.5 - 0.4 - - - - - - -
02/08:30pm 26.9 N 1 4 1004.1 - 0.4 - - - - - - -
02/08:00pm 26.5 NNW 2 4 1003.7 - 0.4 - - - - - - -
02/07:30pm 26.7 N 3 5 1003.5 - 0.4 - - - - - - -
02/07:00pm 27.0 ENE 4 6 1003.2 - 0.4 - - - - - - -
02/06:30pm 26.9 SSE 3 4 1002.3 - 0.4 - - - - - - -
02/06:00pm 27.1 E 4 6 1002.2 - 0.4 Recent precip. - - - - - -
02/05:30pm 27.5 SSE 7 11 1001.8 - 0.4 - - - - - - -
02/05:00pm 29.7 SE 5 8 1002.1 - 0.2 - - - - - - -
02/04:30pm 30.8 ENE 4 4 1002.5 - 0.2 - - - - - - -
02/04:00pm 31.0 CALM 0 0 1002.1 - 0.2 - - - - - - -
02/03:30pm 30.4 NNE 5 6 1002.5 - 0.2 - - - - - - -
02/03:00pm 30.8 CALM 0 3 1002.7 - 0.2 - - - - - - -
02/02:30pm 30.9 SSW 2 4 1003.2 - 0.2 - - - - - - -
02/02:00pm 32.7 S 2 4 1003.6 - 0.2 - - - - - - -
02/01:30pm 33.5 SW 2 5 1004.0 - 0.2 - - - - - - -
02/01:00pm 33.2 SSW 4 6 1004.2 - 0.2 - - - - - - -
02/12:30pm 33.4 SW 3 6 1004.9 - 0.2 - - - - - - -
02/12:00pm 33.5 SSW 5 7 1005.2 - 0.2 - - - - - - -
02/11:30am 33.2 SSW 5 8 1005.4 - 0.2 - - - - - - -
02/11:00am 32.6 S 4 7 1005.7 - 0.2 - - - - - - -
02/10:30am 31.7 SSE 5 9 1005.8 - 0.2 - - - - - - -
02/10:00am 30.9 SSE 5 7 1006.0 - 0.2 - - - - - - -
02/09:30am 30.0 SSE 7 9 1006.0 - 0.0 - - - - - - -
02/09:00am 29.2 S 5 9 1006.4 - 41.4 - - - - - - -
02/08:30am 27.5 SSE 5 6 1006.1 - 41.4 - - - - - - -
02/08:00am 26.4 S 4 5 1005.7 - 41.4 - - - - - - -
02/07:30am 25.5 SW 3 4 1005.3 - 41.4 - - - - - - -
02/07:00am 25.5 CALM 0 3 1005.2 - 41.4 - - - - - - -
02/06:30am 25.5 SSE 1 4 1004.9 - 41.4 - - - - - - -
02/06:00am 25.4 CALM 0 0 1004.4 - 41.4 - - - - - - -

Other Formats:

Comma delimited format used in spreadsheet applications
http://www.bom.gov.au/fwo/IDD60701/IDD60701.95111.axf

JavaScript Object Notation format (JSON) in row-major order
http://www.bom.gov.au/fwo/IDD60701/IDD60701.95111.json